createdAt,value
2023-05-04T00:01:33.971Z,7.75
2023-05-04T00:04:36.984Z,7.82
2023-05-04T00:07:40.006Z,7.38
2023-05-04T00:10:42.993Z,9.57
2023-05-04T00:13:45.975Z,9.10
2023-05-04T00:16:49.084Z,8.25
2023-05-04T00:19:52.103Z,9.90
2023-05-04T00:22:55.140Z,10.00
2023-05-04T00:26:01.117Z,8.57
2023-05-04T00:29:04.052Z,8.23
2023-05-04T00:32:07.241Z,8.20
2023-05-04T00:35:10.409Z,8.68
2023-05-04T00:38:13.801Z,9.05
2023-05-04T00:41:17.534Z,8.00
2023-05-04T00:44:23.543Z,8.57
2023-05-04T00:47:26.966Z,8.50
2023-05-04T00:50:30.158Z,8.48
2023-05-04T00:53:33.135Z,7.95
2023-05-04T00:56:42.147Z,8.80
2023-05-04T00:59:45.204Z,9.00
2023-05-04T01:02:49.213Z,8.50
2023-05-04T01:06:04.586Z,8.93
2023-05-04T01:09:12.511Z,7.45
2023-05-04T01:12:21.939Z,9.10
2023-05-04T01:15:24.977Z,7.67
2023-05-04T01:18:27.934Z,7.60
2023-05-04T01:21:31.331Z,7.57
2023-05-04T01:24:34.282Z,7.18
2023-05-04T01:27:46.803Z,7.17
2023-05-04T01:30:51.562Z,8.07
2023-05-04T01:33:55.195Z,7.30
2023-05-04T01:36:58.154Z,7.80
2023-05-04T01:40:01.500Z,7.00
2023-05-04T01:43:04.726Z,6.60
2023-05-04T01:46:07.721Z,6.73
2023-05-04T01:49:10.696Z,6.95
2023-05-04T01:52:13.614Z,10.20
2023-05-04T01:55:16.676Z,7.13
2023-05-04T01:58:19.803Z,8.10
2023-05-04T02:01:22.807Z,6.97
2023-05-04T02:04:25.794Z,7.25
2023-05-04T02:07:28.749Z,6.32
2023-05-04T02:10:31.794Z,8.07
2023-05-04T02:13:34.775Z,6.30
2023-05-04T02:16:37.901Z,5.87
2023-05-04T02:19:40.890Z,6.00
2023-05-04T02:22:43.894Z,8.23
2023-05-04T02:25:46.819Z,7.63
2023-05-04T02:28:49.753Z,6.97
2023-05-04T02:31:52.748Z,7.73
2023-05-04T02:34:56.095Z,7.35
2023-05-04T02:37:59.042Z,7.70
2023-05-04T02:41:02.371Z,6.47
2023-05-04T02:44:05.454Z,6.33
2023-05-04T02:47:08.415Z,7.10
2023-05-04T02:50:11.487Z,5.95
2023-05-04T02:53:14.473Z,6.70
2023-05-04T02:56:17.476Z,7.25
2023-05-04T02:59:20.692Z,8.17
2023-05-04T03:02:23.744Z,8.70
2023-05-04T03:05:26.696Z,7.45
2023-05-04T03:08:30.234Z,6.75
2023-05-04T03:11:33.749Z,7.00
2023-05-04T03:14:36.936Z,6.37
2023-05-04T03:17:40.047Z,9.47
2023-05-04T03:20:43.123Z,7.68
2023-05-04T03:23:50.453Z,6.45
2023-05-04T03:26:53.452Z,6.22
2023-05-04T03:29:56.447Z,6.47
2023-05-04T03:33:00.470Z,6.30
2023-05-04T03:36:04.655Z,6.65
2023-05-04T03:39:07.945Z,6.68
2023-05-04T03:42:12.197Z,13.10
2023-05-04T03:45:15.211Z,6.80
2023-05-04T03:48:18.255Z,6.97
2023-05-04T03:51:21.743Z,6.53
2023-05-04T03:54:24.714Z,7.03
2023-05-04T03:57:27.728Z,6.70
2023-05-04T04:00:32.517Z,7.50
2023-05-04T04:03:44.785Z,6.87
2023-05-04T04:06:47.835Z,7.07
2023-05-04T04:09:52.380Z,8.25
2023-05-04T04:12:55.475Z,6.22
2023-05-04T04:15:58.521Z,6.67
2023-05-04T04:19:02.145Z,6.90
2023-05-04T04:22:05.103Z,6.80
2023-05-04T04:25:09.011Z,6.90
2023-05-04T04:28:12.560Z,6.78
2023-05-04T04:31:15.542Z,6.23
2023-05-04T04:34:18.708Z,6.17
2023-05-04T04:37:21.864Z,6.82
2023-05-04T04:40:24.912Z,6.88
2023-05-04T04:43:27.893Z,6.20
2023-05-04T04:46:30.895Z,7.47
2023-05-04T04:49:33.946Z,7.50
2023-05-04T04:52:37.158Z,6.18
2023-05-04T04:55:40.107Z,6.57
2023-05-04T04:58:43.034Z,7.03
2023-05-04T05:01:45.999Z,7.27
2023-05-04T05:04:49.002Z,5.50
2023-05-04T05:07:51.985Z,6.97
2023-05-04T05:10:54.978Z,6.35
2023-05-04T05:13:59.874Z,6.70
2023-05-04T05:17:06.579Z,6.57
2023-05-04T05:20:12.879Z,6.57
2023-05-04T05:23:16.436Z,6.50
2023-05-04T05:26:19.487Z,5.93
2023-05-04T05:29:22.442Z,6.13
2023-05-04T05:32:25.440Z,5.80
2023-05-04T05:35:28.425Z,5.63
2023-05-04T05:38:31.526Z,6.18
2023-05-04T05:41:34.519Z,6.32
2023-05-04T05:44:37.621Z,5.88
2023-05-04T05:47:40.888Z,5.10
2023-05-04T05:50:43.990Z,6.47
2023-05-04T05:53:47.021Z,6.60
2023-05-04T05:56:50.063Z,7.43
2023-05-04T05:59:53.091Z,5.85
2023-05-04T06:02:56.352Z,6.43
2023-05-04T06:05:59.500Z,6.50
2023-05-04T06:09:02.627Z,6.43
2023-05-04T06:12:07.201Z,5.97
2023-05-04T06:15:13.125Z,8.32
2023-05-04T06:18:16.414Z,6.13
2023-05-04T06:21:19.375Z,6.77
2023-05-04T06:24:23.045Z,8.90
2023-05-04T06:27:28.891Z,5.53
2023-05-04T06:30:31.940Z,6.10
2023-05-04T06:33:34.982Z,5.37
2023-05-04T06:36:38.036Z,5.20
2023-05-04T06:39:41.048Z,6.68
2023-05-04T06:42:44.152Z,6.20
2023-05-04T06:45:47.227Z,6.80
2023-05-04T06:48:50.272Z,8.17
2023-05-04T06:51:53.216Z,6.00
2023-05-04T06:54:56.194Z,5.60
2023-05-04T06:57:59.175Z,6.85
2023-05-04T07:01:02.168Z,8.93
2023-05-04T07:04:08.855Z,11.27
2023-05-04T07:07:16.020Z,5.87
2023-05-04T07:10:19.709Z,5.75
2023-05-04T07:13:22.904Z,6.22
2023-05-04T07:16:26.492Z,5.97
2023-05-04T07:19:32.539Z,5.53
2023-05-04T07:22:44.997Z,6.40
2023-05-04T07:25:47.969Z,6.07
2023-05-04T07:28:51.064Z,6.63
2023-05-04T07:31:54.085Z,6.20
2023-05-04T07:34:57.475Z,12.27
2023-05-04T07:38:03.410Z,7.50
2023-05-04T07:41:07.358Z,7.10
2023-05-04T07:44:12.617Z,6.25
2023-05-04T07:47:15.650Z,11.57
2023-05-04T07:50:19.280Z,7.67
2023-05-04T07:53:22.309Z,5.83
2023-05-04T07:56:25.553Z,5.55
2023-05-04T07:59:28.586Z,7.40
2023-05-04T08:02:31.626Z,6.32
2023-05-04T08:05:34.718Z,5.57
2023-05-04T08:08:37.833Z,5.20
2023-05-04T08:11:40.958Z,5.53
2023-05-04T08:14:46.658Z,5.60
2023-05-04T08:17:49.714Z,6.20
2023-05-04T08:20:52.772Z,5.40
2023-05-04T08:23:56.062Z,6.90
2023-05-04T08:27:07.181Z,5.82
2023-05-04T08:30:11.592Z,5.15
2023-05-04T08:33:14.549Z,5.88
2023-05-04T08:36:17.640Z,6.23
2023-05-04T08:39:20.834Z,5.87
2023-05-04T08:42:30.109Z,5.38
2023-05-04T08:45:33.487Z,5.20
2023-05-04T08:48:37.056Z,7.95
2023-05-04T08:51:40.192Z,9.33
2023-05-04T08:54:43.502Z,5.70
2023-05-04T08:57:46.492Z,9.45
2023-05-04T09:00:49.846Z,7.72
2023-05-04T09:03:53.164Z,7.82
2023-05-04T09:06:56.958Z,6.23
2023-05-04T09:09:59.917Z,5.77
2023-05-04T09:13:03.427Z,5.22
2023-05-04T09:16:07.705Z,5.80
2023-05-04T09:19:20.387Z,5.90
2023-05-04T09:22:23.879Z,6.77
2023-05-04T09:25:27.234Z,9.03
2023-05-04T09:28:38.720Z,7.38
2023-05-04T09:31:45.185Z,5.65
2023-05-04T09:34:51.688Z,11.20
2023-05-04T09:37:54.736Z,6.30
2023-05-04T09:40:57.677Z,6.10
2023-05-04T09:44:00.688Z,6.53
2023-05-04T09:47:03.666Z,7.50
2023-05-04T09:50:20.683Z,7.40
2023-05-04T09:53:28.356Z,5.90
2023-05-04T09:56:37.678Z,6.33
2023-05-04T09:59:40.866Z,6.03
2023-05-04T10:02:53.572Z,5.30
2023-05-04T10:06:01.082Z,6.40
2023-05-04T10:09:06.473Z,5.90
2023-05-04T10:12:09.432Z,5.33
2023-05-04T10:15:12.756Z,6.57
2023-05-04T10:18:24.869Z,6.18
2023-05-04T10:21:42.828Z,5.57
2023-05-04T10:25:19.427Z,7.53
2023-05-04T10:28:43.373Z,5.97
2023-05-04T10:31:46.635Z,5.93
2023-05-04T10:34:49.757Z,6.20
2023-05-04T10:37:54.690Z,6.38
2023-05-04T10:40:57.772Z,6.00
2023-05-04T10:44:05.083Z,8.17
2023-05-04T10:47:09.712Z,7.65
2023-05-04T10:50:15.800Z,7.72
2023-05-04T10:53:19.125Z,7.10
2023-05-04T10:56:25.916Z,6.30
2023-05-04T10:59:28.870Z,5.83
2023-05-04T11:02:34.074Z,7.10
2023-05-04T11:05:43.876Z,7.97
2023-05-04T11:08:50.414Z,6.90
2023-05-04T11:11:54.645Z,9.60
2023-05-04T11:15:24.336Z,11.17
2023-05-04T11:18:31.569Z,5.38
2023-05-04T11:21:34.523Z,6.45
2023-05-04T11:24:44.590Z,9.80
2023-05-04T11:27:49.665Z,5.90
2023-05-04T11:30:56.054Z,6.93
2023-05-04T11:33:59.261Z,6.82
2023-05-04T11:37:04.002Z,13.50
2023-05-04T11:40:25.804Z,7.55
2023-05-04T11:43:28.850Z,6.70
2023-05-04T11:46:33.320Z,6.50
2023-05-04T11:49:36.449Z,6.57
2023-05-04T11:52:40.603Z,6.78
2023-05-04T11:55:43.557Z,7.75
2023-05-04T11:58:46.566Z,7.10
2023-05-04T12:01:49.690Z,7.83
2023-05-04T12:04:53.075Z,8.93
2023-05-04T12:07:56.126Z,7.00
2023-05-04T12:11:20.557Z,7.07
2023-05-04T12:14:24.680Z,5.73
2023-05-04T12:17:28.466Z,7.63
2023-05-04T12:20:31.791Z,7.38
2023-05-04T12:23:36.525Z,5.40
2023-05-04T12:26:39.465Z,5.47
2023-05-04T12:29:42.456Z,5.53
2023-05-04T12:32:45.415Z,6.75
2023-05-04T12:35:48.415Z,5.93
2023-05-04T12:38:51.378Z,7.10
2023-05-04T12:41:54.319Z,7.25
2023-05-04T12:44:57.397Z,7.17
2023-05-04T12:48:00.504Z,7.60
2023-05-04T12:51:06.313Z,7.13
2023-05-04T12:54:09.314Z,7.63
2023-05-04T12:57:12.445Z,5.60
2023-05-04T13:00:15.863Z,6.13
2023-05-04T13:03:19.052Z,7.80
2023-05-04T13:06:22.354Z,8.50
2023-05-04T13:09:25.302Z,5.63
2023-05-04T13:12:28.319Z,6.93
2023-05-04T13:15:33.151Z,7.53
2023-05-04T13:18:36.148Z,17.40
2023-05-04T13:21:39.108Z,6.57
2023-05-04T13:24:42.061Z,7.10
2023-05-04T13:27:45.071Z,5.93
2023-05-04T13:30:48.384Z,6.33
2023-05-04T13:33:51.354Z,7.85
2023-05-04T13:36:54.318Z,6.82
2023-05-04T13:39:57.306Z,5.35
2023-05-04T13:43:00.246Z,6.35
2023-05-04T13:46:04.088Z,5.97
2023-05-04T13:49:07.116Z,9.35
2023-05-04T13:52:10.244Z,5.90
2023-05-04T13:55:13.945Z,7.82
2023-05-04T13:58:17.361Z,7.32
2023-05-04T14:01:20.388Z,7.00
2023-05-04T14:04:23.605Z,11.52
2023-05-04T14:07:26.573Z,6.20
2023-05-04T14:10:29.518Z,8.15
2023-05-04T14:13:32.564Z,7.25
2023-05-04T14:16:37.480Z,6.90
2023-05-04T14:19:40.751Z,9.35
2023-05-04T14:22:44.078Z,7.70
2023-05-04T14:25:56.905Z,8.52
2023-05-04T14:28:59.944Z,7.53
2023-05-04T14:32:02.916Z,5.70
2023-05-04T14:35:09.019Z,7.07
2023-05-04T14:38:12.676Z,7.97
2023-05-04T14:41:15.750Z,5.82
2023-05-04T14:44:19.599Z,6.47
2023-05-04T14:47:22.733Z,7.97
2023-05-04T14:50:25.704Z,8.82
2023-05-04T14:53:29.962Z,6.85
2023-05-04T14:56:32.970Z,9.07
2023-05-04T14:59:37.584Z,6.78
2023-05-04T15:02:40.691Z,9.10
2023-05-04T15:05:43.781Z,6.70
2023-05-04T15:08:46.788Z,8.35
2023-05-04T15:11:49.867Z,6.25
2023-05-04T15:14:53.134Z,6.15
2023-05-04T15:17:56.150Z,6.50
2023-05-04T15:20:59.182Z,6.07
2023-05-04T15:24:02.269Z,7.13
2023-05-04T15:27:06.196Z,6.57
2023-05-04T15:30:10.225Z,7.63
2023-05-04T15:33:13.367Z,6.77
2023-05-04T15:36:16.321Z,6.35
2023-05-04T15:39:19.264Z,7.28
2023-05-04T15:42:22.220Z,10.05
2023-05-04T15:45:25.446Z,12.88
2023-05-04T15:48:28.453Z,6.93
2023-05-04T15:51:32.125Z,7.38
2023-05-04T15:54:35.202Z,7.65
2023-05-04T15:57:38.131Z,7.88
2023-05-04T16:00:41.152Z,8.05
2023-05-04T16:03:44.287Z,8.47
2023-05-04T16:06:47.830Z,7.38
2023-05-04T16:09:50.903Z,9.05
2023-05-04T16:12:53.904Z,7.68
2023-05-04T16:15:56.968Z,6.65
2023-05-04T16:18:59.919Z,8.53
2023-05-04T16:22:03.198Z,7.13
2023-05-04T16:25:07.427Z,7.20
2023-05-04T16:28:11.867Z,8.32
2023-05-04T16:31:15.129Z,8.95
2023-05-04T16:34:18.112Z,8.80
2023-05-04T16:37:21.215Z,7.10
2023-05-04T16:40:24.222Z,11.18
2023-05-04T16:43:27.346Z,12.00
2023-05-04T16:46:30.523Z,7.93
2023-05-04T16:49:33.976Z,10.30
2023-05-04T16:52:37.248Z,11.63
2023-05-04T16:55:40.829Z,10.77
2023-05-04T16:58:43.946Z,8.93
2023-05-04T17:01:47.873Z,8.15
2023-05-04T17:04:50.913Z,7.60
2023-05-04T17:07:54.129Z,8.10
2023-05-04T17:11:00.226Z,9.23
2023-05-04T17:14:03.730Z,8.75
2023-05-04T17:17:06.887Z,8.23
2023-05-04T17:20:14.926Z,8.17
2023-05-04T17:23:21.106Z,7.10
2023-05-04T17:26:24.077Z,12.05
2023-05-04T17:29:27.113Z,8.32
2023-05-04T17:32:30.884Z,7.03
2023-05-04T17:35:33.863Z,9.20
2023-05-04T17:38:36.798Z,7.90
2023-05-04T17:41:39.839Z,8.50
2023-05-04T17:44:42.793Z,8.43
2023-05-04T17:47:46.460Z,8.43
2023-05-04T17:50:49.491Z,9.10
2023-05-04T17:53:52.477Z,8.57
2023-05-04T17:56:55.460Z,8.35
2023-05-04T17:59:58.492Z,10.27
2023-05-04T18:03:01.527Z,8.70
2023-05-04T18:06:05.833Z,7.50
2023-05-04T18:09:08.949Z,8.90
2023-05-04T18:12:11.965Z,8.68
2023-05-04T18:15:16.464Z,9.48
2023-05-04T18:18:19.415Z,8.07
2023-05-04T18:21:23.453Z,8.33
2023-05-04T18:24:26.423Z,9.38
2023-05-04T18:27:33.550Z,7.75
2023-05-04T18:30:36.535Z,8.63
2023-05-04T18:33:39.490Z,7.47
2023-05-04T18:36:42.418Z,9.40
2023-05-04T18:39:45.687Z,8.95
2023-05-04T18:42:48.637Z,9.57
2023-05-04T18:45:51.677Z,8.13
2023-05-04T18:48:56.163Z,9.85
2023-05-04T18:52:00.639Z,8.70
2023-05-04T18:55:03.739Z,8.82
2023-05-04T18:58:06.773Z,9.95
2023-05-04T19:01:09.701Z,8.57
2023-05-04T19:04:12.710Z,8.85
2023-05-04T19:07:17.149Z,10.17
2023-05-04T19:10:20.090Z,9.10
2023-05-04T19:13:23.143Z,13.15
2023-05-04T19:16:29.197Z,10.15
2023-05-04T19:19:34.961Z,8.70
2023-05-04T19:22:37.928Z,10.60
2023-05-04T19:25:41.069Z,10.18
2023-05-04T19:28:44.034Z,11.40
2023-05-04T19:31:47.324Z,13.77
2023-05-04T19:34:50.344Z,11.57
2023-05-04T19:37:54.394Z,11.63
2023-05-04T19:40:57.476Z,11.75
2023-05-04T19:44:00.386Z,13.35
2023-05-04T19:47:03.551Z,12.15
2023-05-04T19:50:09.779Z,12.07
2023-05-04T19:53:12.940Z,10.93
2023-05-04T19:56:15.997Z,14.00
2023-05-04T19:59:19.378Z,10.88
2023-05-04T20:02:22.590Z,13.88
2023-05-04T20:05:25.707Z,12.32
2023-05-04T20:08:28.812Z,12.70
2023-05-04T20:11:31.785Z,10.23
2023-05-04T20:14:34.811Z,11.48
2023-05-04T20:17:38.153Z,12.73
2023-05-04T20:20:41.211Z,17.50
2023-05-04T20:23:44.161Z,18.03
2023-05-04T20:26:47.144Z,13.50
2023-05-04T20:29:50.073Z,15.32
2023-05-04T20:32:53.028Z,15.48
2023-05-04T20:35:55.952Z,15.55
2023-05-04T20:38:59.401Z,14.20
2023-05-04T20:42:04.671Z,16.25
2023-05-04T20:45:08.122Z,13.52
2023-05-04T20:48:11.357Z,11.55
2023-05-04T20:51:15.397Z,11.98
2023-05-04T20:54:18.686Z,8.87
2023-05-04T20:57:21.635Z,7.68
2023-05-04T21:00:24.839Z,7.20
2023-05-04T21:03:27.916Z,7.57
2023-05-04T21:06:31.322Z,8.65
2023-05-04T21:09:34.233Z,7.60
2023-05-04T21:12:37.311Z,6.35
2023-05-04T21:15:40.693Z,8.07
2023-05-04T21:18:45.265Z,7.15
2023-05-04T21:21:48.230Z,6.88
2023-05-04T21:24:51.285Z,7.53
2023-05-04T21:27:54.242Z,5.72
2023-05-04T21:30:57.469Z,6.90
2023-05-04T21:34:00.523Z,7.80
2023-05-04T21:37:04.059Z,8.18
2023-05-04T21:40:08.909Z,7.70
2023-05-04T21:43:11.991Z,8.48
2023-05-04T21:46:14.950Z,7.45
2023-05-04T21:49:17.950Z,6.72
2023-05-04T21:52:21.120Z,7.82
2023-05-04T21:55:24.079Z,7.97
2023-05-04T21:58:27.523Z,6.15
2023-05-04T22:01:30.521Z,10.02
2023-05-04T22:04:33.497Z,7.25
2023-05-04T22:07:37.143Z,6.47
2023-05-04T22:10:40.079Z,7.17
2023-05-04T22:13:42.985Z,7.55
2023-05-04T22:16:46.481Z,9.30
2023-05-04T22:19:49.518Z,6.28
2023-05-04T22:22:52.527Z,6.55
2023-05-04T22:25:56.097Z,10.80
2023-05-04T22:28:59.092Z,6.85
2023-05-04T22:32:02.070Z,6.32
2023-05-04T22:35:05.314Z,9.95
2023-05-04T22:38:08.260Z,5.65
2023-05-04T22:41:13.100Z,6.30
2023-05-04T22:44:16.041Z,7.13
2023-05-04T22:47:19.000Z,6.68
2023-05-04T22:50:21.988Z,7.30
2023-05-04T22:53:24.951Z,6.78
2023-05-04T22:56:27.992Z,6.30
2023-05-04T22:59:31.762Z,8.88
2023-05-04T23:02:35.171Z,7.32
2023-05-04T23:05:38.192Z,9.80
2023-05-04T23:08:41.333Z,6.60
2023-05-04T23:11:44.427Z,5.93
2023-05-04T23:14:51.592Z,6.35
2023-05-04T23:17:54.571Z,9.05
2023-05-04T23:20:57.526Z,6.47
2023-05-04T23:24:00.472Z,7.47
2023-05-04T23:27:03.506Z,6.80
2023-05-04T23:30:07.394Z,6.28
2023-05-04T23:33:10.639Z,7.00
2023-05-04T23:36:13.599Z,6.55
2023-05-04T23:39:16.912Z,6.75
2023-05-04T23:42:19.844Z,7.67
2023-05-04T23:45:22.836Z,6.80
2023-05-04T23:48:25.801Z,7.78
2023-05-04T23:51:28.786Z,6.95
2023-05-04T23:54:31.914Z,8.07
2023-05-04T23:57:34.903Z,7.43
